sensor_id;sensor_type;location;lat;lon;timestamp;pressure;altitude;pressure_sealevel;temperature;humidity
69058;BME280;56128;37.534;-122.308;2023-02-15T00:02:19;101420.81;;;8.72;90.14
69058;BME280;56128;37.534;-122.308;2023-02-15T00:04:45;101422.91;;;8.67;91.25
69058;BME280;56128;37.534;-122.308;2023-02-15T00:07:16;101412.53;;;8.62;92.33
69058;BME280;56128;37.534;-122.308;2023-02-15T00:09:42;101411.47;;;8.65;93.14
69058;BME280;56128;37.534;-122.308;2023-02-15T00:12:10;101402.09;;;8.57;92.83
69058;BME280;56128;37.534;-122.308;2023-02-15T00:14:36;101392.25;;;8.42;94.08
69058;BME280;56128;37.534;-122.308;2023-02-15T00:17:03;101389.19;;;8.34;93.94
69058;BME280;56128;37.534;-122.308;2023-02-15T00:19:29;101378.97;;;8.26;96.00
69058;BME280;56128;37.534;-122.308;2023-02-15T00:21:55;101373.69;;;8.24;96.97
69058;BME280;56128;37.534;-122.308;2023-02-15T00:24:22;101383.59;;;8.22;98.08
69058;BME280;56128;37.534;-122.308;2023-02-15T00:26:48;101384.03;;;8.15;100.00
69058;BME280;56128;37.534;-122.308;2023-02-15T00:29:16;101382.41;;;8.12;100.00
69058;BME280;56128;37.534;-122.308;2023-02-15T00:31:43;101379.22;;;8.05;100.00
69058;BME280;56128;37.534;-122.308;2023-02-15T00:34:15;101389.03;;;8.05;100.00
69058;BME280;56128;37.534;-122.308;2023-02-15T00:36:42;101379.81;;;7.94;100.00
69058;BME280;56128;37.534;-122.308;2023-02-15T00:39:08;101384.13;;;7.97;100.00
69058;BME280;56128;37.534;-122.308;2023-02-15T00:41:35;101382.31;;;7.97;100.00
69058;BME280;56128;37.534;-122.308;2023-02-15T00:44:02;101385.50;;;7.88;100.00
69058;BME280;56128;37.534;-122.308;2023-02-15T00:46:29;101393.47;;;7.88;100.00
69058;BME280;56128;37.534;-122.308;2023-02-15T00:48:55;101396.47;;;7.82;100.00
69058;BME280;56128;37.534;-122.308;2023-02-15T00:51:22;101406.34;;;7.80;100.00
69058;BME280;56128;37.534;-122.308;2023-02-15T00:53:48;101399.47;;;7.76;100.00
69058;BME280;56128;37.534;-122.308;2023-02-15T00:56:15;101410.75;;;7.81;100.00
69058;BME280;56128;37.534;-122.308;2023-02-15T00:58:42;101406.44;;;7.78;100.00
69058;BME280;56128;37.534;-122.308;2023-02-15T01:01:11;101414.34;;;7.80;100.00
69058;BME280;56128;37.534;-122.308;2023-02-15T01:03:38;101397.41;;;7.81;100.00
69058;BME280;56128;37.534;-122.308;2023-02-15T01:06:07;101409.09;;;7.78;100.00
69058;BME280;56128;37.534;-122.308;2023-02-15T01:08:34;101394.56;;;7.68;100.00
69058;BME280;56128;37.534;-122.308;2023-02-15T01:11:07;101398.41;;;7.62;100.00
69058;BME280;56128;37.534;-122.308;2023-02-15T01:13:34;101409.06;;;7.62;100.00
69058;BME280;56128;37.534;-122.308;2023-02-15T01:16:01;101403.66;;;7.64;99.29
69058;BME280;56128;37.534;-122.308;2023-02-15T01:18:28;101409.38;;;7.56;100.00
69058;BME280;56128;37.534;-122.308;2023-02-15T01:20:55;101415.13;;;7.48;100.00
69058;BME280;56128;37.534;-122.308;2023-02-15T01:23:21;101415.53;;;7.41;100.00
69058;BME280;56128;37.534;-122.308;2023-02-15T01:25:48;101408.72;;;7.35;100.00
69058;BME280;56128;37.534;-122.308;2023-02-15T01:28:14;101412.66;;;7.28;100.00
69058;BME280;56128;37.534;-122.308;2023-02-15T01:30:40;101414.00;;;7.19;100.00
69058;BME280;56128;37.534;-122.308;2023-02-15T01:33:07;101409.00;;;7.13;100.00
69058;BME280;56128;37.534;-122.308;2023-02-15T01:35:33;101404.91;;;7.06;100.00
69058;BME280;56128;37.534;-122.308;2023-02-15T01:37:59;101408.75;;;7.00;100.00
69058;BME280;56128;37.534;-122.308;2023-02-15T01:40:26;101408.75;;;7.00;100.00
69058;BME280;56128;37.534;-122.308;2023-02-15T01:42:54;101411.78;;;6.92;100.00
69058;BME280;56128;37.534;-122.308;2023-02-15T01:45:30;101417.72;;;6.80;100.00
69058;BME280;56128;37.534;-122.308;2023-02-15T01:48:04;101415.38;;;6.74;100.00
69058;BME280;56128;37.534;-122.308;2023-02-15T01:50:38;101413.81;;;6.70;100.00
69058;BME280;56128;37.534;-122.308;2023-02-15T01:55:45;101423.31;;;6.56;100.00
69058;BME280;56128;37.534;-122.308;2023-02-15T01:58:13;101431.44;;;6.53;100.00
69058;BME280;56128;37.534;-122.308;2023-02-15T02:00:40;101418.16;;;6.53;100.00
69058;BME280;56128;37.534;-122.308;2023-02-15T02:03:07;101431.63;;;6.50;100.00
69058;BME280;56128;37.534;-122.308;2023-02-15T02:05:33;101433.78;;;6.42;100.00
69058;BME280;56128;37.534;-122.308;2023-02-15T02:08:01;101429.47;;;6.39;100.00
69058;BME280;56128;37.534;-122.308;2023-02-15T02:10:28;101444.53;;;6.39;100.00
69058;BME280;56128;37.534;-122.308;2023-02-15T02:13:00;101453.69;;;6.33;100.00
69058;BME280;56128;37.534;-122.308;2023-02-15T02:16:00;101447.44;;;6.34;100.00
69058;BME280;56128;37.534;-122.308;2023-02-15T02:33:06;101477.44;;;6.17;100.00
69058;BME280;56128;37.534;-122.308;2023-02-15T02:38:27;101476.97;;;6.09;100.00
69058;BME280;56128;37.534;-122.308;2023-02-15T02:41:17;101478.03;;;6.24;100.00
69058;BME280;56128;37.534;-122.308;2023-02-15T02:46:49;101502.44;;;6.13;100.00
69058;BME280;56128;37.534;-122.308;2023-02-15T02:49:17;101490.59;;;6.20;100.00
69058;BME280;56128;37.534;-122.308;2023-02-15T02:51:43;101488.81;;;6.21;100.00
69058;BME280;56128;37.534;-122.308;2023-02-15T02:54:09;101497.66;;;6.21;100.00
69058;BME280;56128;37.534;-122.308;2023-02-15T02:56:36;101508.75;;;6.10;100.00
69058;BME280;56128;37.534;-122.308;2023-02-15T02:59:27;101510.63;;;6.08;100.00
69058;BME280;56128;37.534;-122.308;2023-02-15T03:02:11;101521.16;;;6.10;100.00
69058;BME280;56128;37.534;-122.308;2023-02-15T03:04:43;101520.78;;;5.98;100.00
69058;BME280;56128;37.534;-122.308;2023-02-15T03:07:14;101525.78;;;6.06;100.00
69058;BME280;56128;37.534;-122.308;2023-02-15T03:09:51;101520.91;;;5.95;100.00
69058;BME280;56128;37.534;-122.308;2023-02-15T03:12:21;101527.34;;;5.90;100.00
69058;BME280;56128;37.534;-122.308;2023-02-15T03:14:53;101522.84;;;5.92;100.00
69058;BME280;56128;37.534;-122.308;2023-02-15T03:17:23;101530.34;;;5.82;100.00
69058;BME280;56128;37.534;-122.308;2023-02-15T03:19:53;101532.53;;;5.72;100.00
69058;BME280;56128;37.534;-122.308;2023-02-15T03:22:26;101538.19;;;5.64;100.00
69058;BME280;56128;37.534;-122.308;2023-02-15T03:25:01;101542.38;;;5.70;100.00
69058;BME280;56128;37.534;-122.308;2023-02-15T03:27:33;101546.75;;;5.71;100.00
69058;BME280;56128;37.534;-122.308;2023-02-15T03:30:03;101559.31;;;5.67;100.00
69058;BME280;56128;37.534;-122.308;2023-02-15T03:32:32;101568.28;;;5.65;100.00
69058;BME280;56128;37.534;-122.308;2023-02-15T03:35:00;101565.13;;;5.55;100.00
69058;BME280;56128;37.534;-122.308;2023-02-15T03:40:18;101576.41;;;5.40;100.00
69058;BME280;56128;37.534;-122.308;2023-02-15T03:43:36;101585.81;;;5.47;100.00
69058;BME280;56128;37.534;-122.308;2023-02-15T03:46:23;101592.34;;;5.40;100.00
69058;BME280;56128;37.534;-122.308;2023-02-15T03:49:01;101595.28;;;5.32;100.00
69058;BME280;56128;37.534;-122.308;2023-02-15T03:51:33;101594.56;;;5.28;100.00
69058;BME280;56128;37.534;-122.308;2023-02-15T03:57:06;101605.41;;;5.22;100.00
69058;BME280;56128;37.534;-122.308;2023-02-15T03:59:51;101618.97;;;5.14;100.00
69058;BME280;56128;37.534;-122.308;2023-02-15T04:05:31;101610.53;;;5.04;100.00
69058;BME280;56128;37.534;-122.308;2023-02-15T04:07:57;101618.34;;;5.08;100.00
69058;BME280;56128;37.534;-122.308;2023-02-15T04:10:23;101613.66;;;4.92;100.00
69058;BME280;56128;37.534;-122.308;2023-02-15T04:13:08;101619.28;;;4.84;100.00
69058;BME280;56128;37.534;-122.308;2023-02-15T04:15:34;101635.13;;;4.86;100.00
69058;BME280;56128;37.534;-122.308;2023-02-15T04:18:19;101630.91;;;4.80;100.00
69058;BME280;56128;37.534;-122.308;2023-02-15T04:20:45;101634.38;;;4.82;100.00
69058;BME280;56128;37.534;-122.308;2023-02-15T04:23:30;101627.97;;;4.64;100.00
69058;BME280;56128;37.534;-122.308;2023-02-15T04:26:15;101645.44;;;4.70;100.00
69058;BME280;56128;37.534;-122.308;2023-02-15T04:28:42;101643.81;;;4.66;100.00
69058;BME280;56128;37.534;-122.308;2023-02-15T04:31:08;101646.69;;;4.60;100.00
69058;BME280;56128;37.534;-122.308;2023-02-15T04:33:34;101647.03;;;4.74;100.00
69058;BME280;56128;37.534;-122.308;2023-02-15T04:36:03;101645.94;;;5.03;100.00
69058;BME280;56128;37.534;-122.308;2023-02-15T04:38:29;101647.63;;;5.28;100.00
69058;BME280;56128;37.534;-122.308;2023-02-15T04:40:55;101654.16;;;5.42;100.00
69058;BME280;56128;37.534;-122.308;2023-02-15T04:43:21;101653.06;;;5.47;100.00
69058;BME280;56128;37.534;-122.308;2023-02-15T04:45:49;101654.91;;;5.67;97.01
69058;BME280;56128;37.534;-122.308;2023-02-15T04:48:17;101667.44;;;5.84;96.08
69058;BME280;56128;37.534;-122.308;2023-02-15T04:50:44;101677.34;;;5.81;96.65
69058;BME280;56128;37.534;-122.308;2023-02-15T04:53:10;101675.41;;;5.64;99.73
69058;BME280;56128;37.534;-122.308;2023-02-15T04:55:37;101682.22;;;5.69;96.63
69058;BME280;56128;37.534;-122.308;2023-02-15T04:58:03;101683.53;;;5.59;98.13
69058;BME280;56128;37.534;-122.308;2023-02-15T05:00:29;101685.03;;;5.44;100.00
69058;BME280;56128;37.534;-122.308;2023-02-15T05:02:55;101684.41;;;5.38;100.00
69058;BME280;56128;37.534;-122.308;2023-02-15T05:05:22;101694.03;;;5.40;100.00
69058;BME280;56128;37.534;-122.308;2023-02-15T05:07:48;101697.84;;;5.33;100.00
69058;BME280;56128;37.534;-122.308;2023-02-15T05:10:14;101696.19;;;5.30;99.64
69058;BME280;56128;37.534;-122.308;2023-02-15T05:12:40;101700.19;;;5.18;100.00
69058;BME280;56128;37.534;-122.308;2023-02-15T05:15:07;101714.00;;;5.27;97.65
69058;BME280;56128;37.534;-122.308;2023-02-15T05:17:33;101712.84;;;5.34;98.90
69058;BME280;56128;37.534;-122.308;2023-02-15T05:20:00;101710.81;;;5.41;95.56
69058;BME280;56128;37.534;-122.308;2023-02-15T05:22:26;101714.16;;;5.46;94.13
69058;BME280;56128;37.534;-122.308;2023-02-15T05:24:52;101713.91;;;5.52;94.29
69058;BME280;56128;37.534;-122.308;2023-02-15T05:27:36;101722.31;;;5.63;87.83
69058;BME280;56128;37.534;-122.308;2023-02-15T05:30:21;101729.59;;;5.58;90.09
69058;BME280;56128;37.534;-122.308;2023-02-15T05:32:47;101738.25;;;5.63;90.75
69058;BME280;56128;37.534;-122.308;2023-02-15T05:35:17;101737.22;;;5.67;86.11
69058;BME280;56128;37.534;-122.308;2023-02-15T05:37:43;101726.69;;;5.64;84.95
69058;BME280;56128;37.534;-122.308;2023-02-15T05:40:09;101736.16;;;5.72;85.73
69058;BME280;56128;37.534;-122.308;2023-02-15T05:42:36;101742.13;;;5.77;80.96
69058;BME280;56128;37.534;-122.308;2023-02-15T05:45:02;101746.91;;;5.68;80.66
69058;BME280;56128;37.534;-122.308;2023-02-15T05:47:29;101751.72;;;5.59;83.28
69058;BME280;56128;37.534;-122.308;2023-02-15T05:49:55;101760.47;;;5.61;80.86
69058;BME280;56128;37.534;-122.308;2023-02-15T05:52:21;101759.75;;;5.57;80.12
69058;BME280;56128;37.534;-122.308;2023-02-15T05:54:47;101751.28;;;5.69;78.03
69058;BME280;56128;37.534;-122.308;2023-02-15T05:57:14;101745.63;;;5.79;76.59
69058;BME280;56128;37.534;-122.308;2023-02-15T05:59:40;101762.13;;;5.63;78.80
69058;BME280;56128;37.534;-122.308;2023-02-15T06:02:06;101763.63;;;5.71;79.28
69058;BME280;56128;37.534;-122.308;2023-02-15T06:04:32;101763.56;;;5.72;77.75
69058;BME280;56128;37.534;-122.308;2023-02-15T06:06:59;101762.22;;;5.84;77.20
69058;BME280;56128;37.534;-122.308;2023-02-15T06:09:25;101772.84;;;5.84;75.64
69058;BME280;56128;37.534;-122.308;2023-02-15T06:11:51;101779.00;;;5.84;75.93
69058;BME280;56128;37.534;-122.308;2023-02-15T06:14:17;101783.84;;;5.75;77.24
69058;BME280;56128;37.534;-122.308;2023-02-15T06:16:43;101782.47;;;5.64;80.52
69058;BME280;56128;37.534;-122.308;2023-02-15T06:19:10;101780.00;;;5.60;78.70
69058;BME280;56128;37.534;-122.308;2023-02-15T06:21:36;101782.59;;;5.61;82.00
69058;BME280;56128;37.534;-122.308;2023-02-15T06:24:02;101786.78;;;5.45;85.16
69058;BME280;56128;37.534;-122.308;2023-02-15T06:26:28;101771.53;;;5.26;85.53
69058;BME280;56128;37.534;-122.308;2023-02-15T06:28:54;101783.59;;;5.11;88.50
69058;BME280;56128;37.534;-122.308;2023-02-15T06:31:21;101786.31;;;5.33;82.88
69058;BME280;56128;37.534;-122.308;2023-02-15T06:33:47;101797.78;;;5.34;84.32
69058;BME280;56128;37.534;-122.308;2023-02-15T06:36:13;101807.13;;;5.20;87.18
69058;BME280;56128;37.534;-122.308;2023-02-15T06:38:39;101804.41;;;4.98;90.87
69058;BME280;56128;37.534;-122.308;2023-02-15T06:41:06;101799.88;;;5.00;88.96
69058;BME280;56128;37.534;-122.308;2023-02-15T06:43:32;101809.94;;;4.92;89.94
69058;BME280;56128;37.534;-122.308;2023-02-15T06:46:00;101808.19;;;4.91;90.87
69058;BME280;56128;37.534;-122.308;2023-02-15T06:48:26;101808.13;;;4.93;91.17
69058;BME280;56128;37.534;-122.308;2023-02-15T06:50:52;101811.34;;;4.77;94.17
69058;BME280;56128;37.534;-122.308;2023-02-15T06:53:19;101813.44;;;4.67;95.52
69058;BME280;56128;37.534;-122.308;2023-02-15T06:55:45;101811.16;;;4.82;94.41
69058;BME280;56128;37.534;-122.308;2023-02-15T06:58:11;101827.38;;;5.23;91.43
69058;BME280;56128;37.534;-122.308;2023-02-15T07:00:37;101820.47;;;5.43;89.48
69058;BME280;56128;37.534;-122.308;2023-02-15T07:03:03;101824.84;;;5.20;90.86
69058;BME280;56128;37.534;-122.308;2023-02-15T07:05:33;101827.09;;;5.06;94.79
69058;BME280;56128;37.534;-122.308;2023-02-15T07:08:00;101831.41;;;5.10;94.45
69058;BME280;56128;37.534;-122.308;2023-02-15T07:10:27;101838.78;;;5.25;96.12
69058;BME280;56128;37.534;-122.308;2023-02-15T07:12:54;101837.75;;;5.29;93.00
69058;BME280;56128;37.534;-122.308;2023-02-15T07:15:21;101829.81;;;5.53;88.62
69058;BME280;56128;37.534;-122.308;2023-02-15T07:17:48;101828.34;;;5.68;86.62
69058;BME280;56128;37.534;-122.308;2023-02-15T07:20:17;101829.63;;;5.58;86.86
69058;BME280;56128;37.534;-122.308;2023-02-15T07:22:43;101846.16;;;5.42;88.43
69058;BME280;56128;37.534;-122.308;2023-02-15T07:25:11;101847.34;;;5.33;90.98
69058;BME280;56128;37.534;-122.308;2023-02-15T07:27:38;101855.41;;;5.30;91.79
69058;BME280;56128;37.534;-122.308;2023-02-15T07:30:06;101853.63;;;5.55;90.36
69058;BME280;56128;37.534;-122.308;2023-02-15T07:32:33;101859.13;;;5.74;87.64
69058;BME280;56128;37.534;-122.308;2023-02-15T07:34:59;101859.06;;;5.51;90.55
69058;BME280;56128;37.534;-122.308;2023-02-15T07:37:27;101872.22;;;5.55;89.62
69058;BME280;56128;37.534;-122.308;2023-02-15T07:39:53;101879.50;;;5.49;89.97
69058;BME280;56128;37.534;-122.308;2023-02-15T07:42:19;101873.41;;;5.46;90.83
69058;BME280;56128;37.534;-122.308;2023-02-15T07:44:47;101883.59;;;5.58;87.64
69058;BME280;56128;37.534;-122.308;2023-02-15T07:47:13;101882.09;;;5.51;88.26
69058;BME280;56128;37.534;-122.308;2023-02-15T07:49:40;101889.34;;;5.69;84.26
69058;BME280;56128;37.534;-122.308;2023-02-15T07:52:06;101891.16;;;5.69;82.54
69058;BME280;56128;37.534;-122.308;2023-02-15T07:54:32;101893.75;;;5.71;81.32
69058;BME280;56128;37.534;-122.308;2023-02-15T07:57:00;101888.16;;;5.78;79.39
69058;BME280;56128;37.534;-122.308;2023-02-15T07:59:27;101896.53;;;5.91;77.65
69058;BME280;56128;37.534;-122.308;2023-02-15T08:01:53;101904.75;;;6.09;76.19
69058;BME280;56128;37.534;-122.308;2023-02-15T08:04:21;101910.75;;;6.14;76.23
69058;BME280;56128;37.534;-122.308;2023-02-15T08:06:52;101921.91;;;6.00;77.45
69058;BME280;56128;37.534;-122.308;2023-02-15T08:09:20;101926.34;;;5.99;78.72
69058;BME280;56128;37.534;-122.308;2023-02-15T08:11:47;101914.72;;;6.02;78.10
69058;BME280;56128;37.534;-122.308;2023-02-15T08:14:18;101921.69;;;5.81;79.89
69058;BME280;56128;37.534;-122.308;2023-02-15T08:16:49;101930.72;;;5.77;79.81
69058;BME280;56128;37.534;-122.308;2023-02-15T08:21:47;101928.66;;;5.85;75.42
69058;BME280;56128;37.534;-122.308;2023-02-15T08:24:15;101942.72;;;5.87;74.47
69058;BME280;56128;37.534;-122.308;2023-02-15T08:26:43;101945.34;;;5.89;72.21
69058;BME280;56128;37.534;-122.308;2023-02-15T08:29:13;101932.69;;;5.95;70.11
69058;BME280;56128;37.534;-122.308;2023-02-15T08:31:39;101946.78;;;5.97;70.08
69058;BME280;56128;37.534;-122.308;2023-02-15T08:34:09;101924.50;;;6.01;69.81
69058;BME280;56128;37.534;-122.308;2023-02-15T08:36:36;101944.34;;;5.91;70.82
69058;BME280;56128;37.534;-122.308;2023-02-15T08:39:04;101952.19;;;5.94;71.58
69058;BME280;56128;37.534;-122.308;2023-02-15T08:41:35;101958.03;;;5.80;71.97
69058;BME280;56128;37.534;-122.308;2023-02-15T08:44:04;101953.69;;;5.78;72.52
69058;BME280;56128;37.534;-122.308;2023-02-15T08:46:33;101962.03;;;5.67;73.99
69058;BME280;56128;37.534;-122.308;2023-02-15T08:49:00;101964.44;;;5.75;72.82
69058;BME280;56128;37.534;-122.308;2023-02-15T08:51:29;101970.06;;;5.65;73.21
69058;BME280;56128;37.534;-122.308;2023-02-15T08:53:59;101977.91;;;5.45;76.46
69058;BME280;56128;37.534;-122.308;2023-02-15T08:56:28;101969.75;;;5.24;77.71
69058;BME280;56128;37.534;-122.308;2023-02-15T08:58:56;101967.50;;;5.12;78.15
69058;BME280;56128;37.534;-122.308;2023-02-15T09:01:24;101969.63;;;5.02;82.61
69058;BME280;56128;37.534;-122.308;2023-02-15T09:03:55;101981.41;;;4.93;82.19
69058;BME280;56128;37.534;-122.308;2023-02-15T09:06:22;101981.44;;;4.92;80.80
69058;BME280;56128;37.534;-122.308;2023-02-15T09:08:50;101983.03;;;4.97;79.64
69058;BME280;56128;37.534;-122.308;2023-02-15T09:11:29;101987.22;;;5.04;78.73
69058;BME280;56128;37.534;-122.308;2023-02-15T09:13:58;101999.03;;;4.94;83.27
69058;BME280;56128;37.534;-122.308;2023-02-15T09:16:27;101997.31;;;4.93;78.74
69058;BME280;56128;37.534;-122.308;2023-02-15T09:18:54;101999.66;;;4.76;82.33
69058;BME280;56128;37.534;-122.308;2023-02-15T09:21:22;101994.75;;;4.63;84.11
69058;BME280;56128;37.534;-122.308;2023-02-15T09:23:51;101995.13;;;4.51;81.66
69058;BME280;56128;37.534;-122.308;2023-02-15T09:26:20;102004.13;;;5.00;76.51
69058;BME280;56128;37.534;-122.308;2023-02-15T09:28:47;102012.06;;;5.02;75.02
69058;BME280;56128;37.534;-122.308;2023-02-15T09:31:22;102010.72;;;5.15;73.62
69058;BME280;56128;37.534;-122.308;2023-02-15T09:33:49;102010.25;;;5.29;71.91
69058;BME280;56128;37.534;-122.308;2023-02-15T09:36:27;102015.34;;;5.35;71.92
69058;BME280;56128;37.534;-122.308;2023-02-15T09:47:39;102016.28;;;4.81;79.18
69058;BME280;56128;37.534;-122.308;2023-02-15T09:56:36;102023.53;;;4.74;76.98
69058;BME280;56128;37.534;-122.308;2023-02-15T10:05:12;102026.59;;;4.90;74.65
69058;BME280;56128;37.534;-122.308;2023-02-15T10:11:03;102016.28;;;5.08;69.02
69058;BME280;56128;37.534;-122.308;2023-02-15T10:19:26;102025.94;;;4.82;73.51
69058;BME280;56128;37.534;-122.308;2023-02-15T10:22:15;102018.63;;;4.90;72.62
69058;BME280;56128;37.534;-122.308;2023-02-15T10:25:23;102026.06;;;4.79;71.89
69058;BME280;56128;37.534;-122.308;2023-02-15T10:28:03;102018.44;;;4.68;73.53
69058;BME280;56128;37.534;-122.308;2023-02-15T10:30:50;102016.84;;;4.62;73.97
69058;BME280;56128;37.534;-122.308;2023-02-15T10:44:19;102025.75;;;3.68;88.92
69058;BME280;56128;37.534;-122.308;2023-02-15T10:47:10;102025.31;;;3.51;90.61
69058;BME280;56128;37.534;-122.308;2023-02-15T11:00:54;102031.28;;;2.49;100.00
69058;BME280;56128;37.534;-122.308;2023-02-15T11:06:14;102032.69;;;2.25;100.00
69058;BME280;56128;37.534;-122.308;2023-02-15T11:08:50;102035.63;;;2.09;100.00
69058;BME280;56128;37.534;-122.308;2023-02-15T11:11:36;102029.75;;;1.95;100.00
69058;BME280;56128;37.534;-122.308;2023-02-15T11:17:01;102030.13;;;1.76;100.00
69058;BME280;56128;37.534;-122.308;2023-02-15T11:19:37;102034.69;;;1.68;100.00
69058;BME280;56128;37.534;-122.308;2023-02-15T11:22:06;102033.88;;;1.63;100.00
69058;BME280;56128;37.534;-122.308;2023-02-15T11:24:42;102039.25;;;1.58;100.00
69058;BME280;56128;37.534;-122.308;2023-02-15T11:27:21;102040.25;;;1.51;100.00
69058;BME280;56128;37.534;-122.308;2023-02-15T11:30:10;102029.91;;;1.39;100.00
69058;BME280;56128;37.534;-122.308;2023-02-15T11:32:50;102040.50;;;1.37;100.00
69058;BME280;56128;37.534;-122.308;2023-02-15T11:35:33;102042.38;;;1.31;100.00
69058;BME280;56128;37.534;-122.308;2023-02-15T11:38:12;102045.97;;;1.25;100.00
69058;BME280;56128;37.534;-122.308;2023-02-15T11:40:54;102049.53;;;1.22;100.00
69058;BME280;56128;37.534;-122.308;2023-02-15T11:43:26;102049.59;;;1.18;100.00
69058;BME280;56128;37.534;-122.308;2023-02-15T11:45:54;102044.44;;;1.11;100.00
69058;BME280;56128;37.534;-122.308;2023-02-15T11:48:21;102052.41;;;1.08;100.00
69058;BME280;56128;37.534;-122.308;2023-02-15T11:50:47;102053.28;;;1.07;100.00
69058;BME280;56128;37.534;-122.308;2023-02-15T11:53:19;102054.19;;;1.06;100.00
69058;BME280;56128;37.534;-122.308;2023-02-15T11:55:55;102063.03;;;1.02;100.00
69058;BME280;56128;37.534;-122.308;2023-02-15T11:58:38;102070.97;;;1.01;100.00
69058;BME280;56128;37.534;-122.308;2023-02-15T12:03:51;102071.97;;;0.92;100.00
69058;BME280;56128;37.534;-122.308;2023-02-15T12:06:27;102083.38;;;0.92;100.00
69058;BME280;56128;37.534;-122.308;2023-02-15T12:11:39;102085.31;;;0.81;100.00
69058;BME280;56128;37.534;-122.308;2023-02-15T12:14:08;102081.00;;;0.74;100.00
69058;BME280;56128;37.534;-122.308;2023-02-15T12:16:49;102085.44;;;0.70;100.00
69058;BME280;56128;37.534;-122.308;2023-02-15T12:19:37;102091.66;;;0.66;100.00
69058;BME280;56128;37.534;-122.308;2023-02-15T12:22:51;102093.41;;;0.64;100.00
69058;BME280;56128;37.534;-122.308;2023-02-15T12:24:58;102099.69;;;0.57;100.00
69058;BME280;56128;37.534;-122.308;2023-02-15T12:27:30;102100.63;;;0.51;100.00
69058;BME280;56128;37.534;-122.308;2023-02-15T12:30:05;102101.59;;;0.45;100.00
69058;BME280;56128;37.534;-122.308;2023-02-15T12:32:53;102104.28;;;0.39;100.00
69058;BME280;56128;37.534;-122.308;2023-02-15T12:35:31;102103.50;;;0.31;100.00
69058;BME280;56128;37.534;-122.308;2023-02-15T12:40:37;102108.88;;;0.22;100.00
69058;BME280;56128;37.534;-122.308;2023-02-15T12:43:34;102123.88;;;0.17;100.00
69058;BME280;56128;37.534;-122.308;2023-02-15T12:46:20;102126.56;;;0.10;100.00
69058;BME280;56128;37.534;-122.308;2023-02-15T12:48:46;102121.38;;;0.03;100.00
69058;BME280;56128;37.534;-122.308;2023-02-15T12:51:16;102131.91;;;0.01;100.00
69058;BME280;56128;37.534;-122.308;2023-02-15T12:53:42;102128.44;;;-0.01;100.00
69058;BME280;56128;37.534;-122.308;2023-02-15T12:56:10;102130.16;;;-0.02;100.00
69058;BME280;56128;37.534;-122.308;2023-02-15T12:58:38;102135.50;;;-0.08;100.00
69058;BME280;56128;37.534;-122.308;2023-02-15T13:01:15;102140.81;;;-0.11;100.00
69058;BME280;56128;37.534;-122.308;2023-02-15T13:04:01;102151.31;;;-0.11;100.00
69058;BME280;56128;37.534;-122.308;2023-02-15T13:06:32;102142.63;;;-0.18;100.00
69058;BME280;56128;37.534;-122.308;2023-02-15T13:12:21;102154.94;;;-0.24;100.00
69058;BME280;56128;37.534;-122.308;2023-02-15T13:14:51;102162.84;;;-0.29;100.00
69058;BME280;56128;37.534;-122.308;2023-02-15T13:17:24;102168.16;;;-0.32;100.00
69058;BME280;56128;37.534;-122.308;2023-02-15T13:20:05;102157.69;;;-0.38;100.00
69058;BME280;56128;37.534;-122.308;2023-02-15T13:22:44;102164.72;;;-0.40;100.00
69058;BME280;56128;37.534;-122.308;2023-02-15T13:25:19;102166.50;;;-0.45;100.00
69058;BME280;56128;37.534;-122.308;2023-02-15T13:27:51;102155.22;;;-0.55;100.00
69058;BME280;56128;37.534;-122.308;2023-02-15T13:30:26;102174.47;;;-0.53;100.00
69058;BME280;56128;37.534;-122.308;2023-02-15T13:33:10;102169.22;;;-0.56;100.00
69058;BME280;56128;37.534;-122.308;2023-02-15T13:41:20;102172.84;;;-0.74;100.00
69058;BME280;56128;37.534;-122.308;2023-02-15T14:00:26;102195.69;;;-0.87;100.00
69058;BME280;56128;37.534;-122.308;2023-02-15T14:06:18;102187.88;;;-0.95;100.00
69058;BME280;56128;37.534;-122.308;2023-02-15T14:14:29;102187.88;;;-0.96;100.00
69058;BME280;56128;37.534;-122.308;2023-02-15T14:27:54;102197.56;;;-1.06;100.00
69058;BME280;56128;37.534;-122.308;2023-02-15T14:30:29;102199.31;;;-1.13;100.00
69058;BME280;56128;37.534;-122.308;2023-02-15T14:33:05;102201.94;;;-1.15;100.00
69058;BME280;56128;37.534;-122.308;2023-02-15T14:35:32;102204.59;;;-1.16;100.00
69058;BME280;56128;37.534;-122.308;2023-02-15T14:41:20;102209.81;;;-1.08;100.00
69058;BME280;56128;37.534;-122.308;2023-02-15T14:43:47;102214.22;;;-1.09;100.00
69058;BME280;56128;37.534;-122.308;2023-02-15T14:48:50;102214.22;;;-1.10;100.00
69058;BME280;56128;37.534;-122.308;2023-02-15T15:02:47;102240.41;;;-1.00;100.00
69058;BME280;56128;37.534;-122.308;2023-02-15T15:05:23;102233.44;;;-1.02;100.00
69058;BME280;56128;37.534;-122.308;2023-02-15T15:07:57;102241.31;;;-1.04;100.00
69058;BME280;56128;37.534;-122.308;2023-02-15T15:10:57;102240.38;;;-0.89;100.00
69058;BME280;56128;37.534;-122.308;2023-02-15T15:14:01;102239.53;;;-0.97;100.00
69058;BME280;56128;37.534;-122.308;2023-02-15T15:19:10;102246.56;;;-0.99;100.00
69058;BME280;56128;37.534;-122.308;2023-02-15T15:22:03;102235.22;;;-1.07;100.00
69058;BME280;56128;37.534;-122.308;2023-02-15T15:27:45;102262.31;;;-0.98;100.00
69058;BME280;56128;37.534;-122.308;2023-02-15T15:49:59;102293.47;;;-0.23;100.00
69058;BME280;56128;37.534;-122.308;2023-02-15T15:52:26;102294.31;;;-0.13;100.00